createdAt,value
2023-08-14T00:01:28.701Z,15.50
2023-08-14T00:04:30.947Z,14.63
2023-08-14T00:07:33.036Z,13.82
2023-08-14T00:10:35.095Z,14.98
2023-08-14T00:13:57.463Z,13.90
2023-08-14T00:17:00.018Z,14.73
2023-08-14T00:20:02.462Z,13.52
2023-08-14T00:23:04.720Z,12.93
2023-08-14T00:26:06.979Z,13.02
2023-08-14T00:29:09.229Z,13.57
2023-08-14T00:32:11.353Z,13.82
2023-08-14T00:35:13.728Z,17.73
2023-08-14T00:38:15.764Z,16.60
2023-08-14T00:41:17.801Z,12.98
2023-08-14T00:44:19.933Z,14.88
2023-08-14T00:47:22.540Z,13.70
2023-08-14T00:50:24.908Z,15.25
2023-08-14T00:53:29.515Z,14.70
2023-08-14T00:56:32.297Z,13.45
2023-08-14T00:59:35.309Z,17.23
2023-08-14T01:02:37.775Z,12.07
2023-08-14T01:05:40.373Z,14.18
2023-08-14T01:08:44.126Z,12.13
2023-08-14T01:12:08.950Z,12.60
2023-08-14T01:15:16.405Z,18.85
2023-08-14T01:18:20.345Z,11.55
2023-08-14T01:21:55.017Z,14.98
2023-08-14T01:25:27.861Z,13.02
2023-08-14T01:28:30.388Z,15.07
2023-08-14T01:31:32.709Z,14.32
2023-08-14T01:34:34.877Z,15.90
2023-08-14T01:37:48.220Z,17.95
2023-08-14T01:40:59.879Z,14.52
2023-08-14T01:44:05.740Z,17.50
2023-08-14T01:47:14.339Z,15.27
2023-08-14T01:50:17.500Z,14.38
2023-08-14T01:53:20.150Z,16.67
2023-08-14T01:56:22.355Z,13.95
2023-08-14T01:59:46.398Z,16.50
2023-08-14T02:02:49.129Z,12.15
2023-08-14T02:05:51.286Z,13.05
2023-08-14T02:08:53.430Z,16.13
2023-08-14T02:11:55.770Z,14.73
2023-08-14T02:14:58.522Z,16.00
2023-08-14T02:18:00.670Z,16.88
2023-08-14T02:21:02.855Z,15.25
2023-08-14T02:24:05.338Z,14.75
2023-08-14T02:27:07.418Z,16.55
2023-08-14T02:30:09.627Z,13.88
2023-08-14T02:33:11.755Z,15.73
2023-08-14T02:36:13.832Z,18.77
2023-08-14T02:39:15.981Z,17.75
2023-08-14T02:42:20.182Z,17.08
2023-08-14T02:45:22.531Z,16.83
2023-08-14T02:48:24.986Z,16.38
2023-08-14T02:51:27.053Z,16.77
2023-08-14T02:54:29.195Z,16.95
2023-08-14T02:57:31.256Z,15.63
2023-08-14T03:00:33.441Z,14.88
2023-08-14T03:03:35.494Z,14.07
2023-08-14T03:06:37.888Z,12.52
2023-08-14T03:09:39.938Z,14.02
2023-08-14T03:12:42.015Z,13.13
2023-08-14T03:15:44.239Z,15.98
2023-08-14T03:18:46.335Z,17.95
2023-08-14T03:21:52.211Z,16.65
2023-08-14T03:24:54.480Z,12.43
2023-08-14T03:27:56.807Z,14.60
2023-08-14T03:30:59.015Z,16.73
2023-08-14T03:34:01.602Z,14.70
2023-08-14T03:37:03.653Z,11.35
2023-08-14T03:40:06.881Z,12.13
2023-08-14T03:43:08.930Z,12.90
2023-08-14T03:46:11.023Z,14.15
2023-08-14T03:49:13.072Z,12.30
2023-08-14T03:52:15.715Z,14.68
2023-08-14T03:55:18.201Z,16.52
2023-08-14T03:58:20.301Z,15.48
2023-08-14T04:01:22.461Z,14.38
2023-08-14T04:04:24.620Z,17.20
2023-08-14T04:07:26.761Z,14.02
2023-08-14T04:10:29.501Z,13.70
2023-08-14T04:13:31.566Z,13.55
2023-08-14T04:16:42.858Z,18.55
2023-08-14T04:19:45.265Z,16.13
2023-08-14T04:22:47.265Z,14.13
2023-08-14T04:25:49.433Z,17.73
2023-08-14T04:28:51.664Z,14.25
2023-08-14T04:31:53.847Z,15.50
2023-08-14T04:34:55.951Z,17.48
2023-08-14T04:37:57.986Z,16.52
2023-08-14T04:41:00.288Z,16.52
2023-08-14T04:44:02.539Z,15.18
2023-08-14T04:47:04.821Z,18.98
2023-08-14T04:50:07.586Z,19.33
2023-08-14T04:53:09.761Z,16.83
2023-08-14T04:56:11.849Z,19.15
2023-08-14T04:59:13.921Z,21.02
2023-08-14T05:02:16.280Z,23.23
2023-08-14T05:05:20.265Z,21.70
2023-08-14T05:08:22.488Z,23.33
2023-08-14T05:11:25.571Z,23.52
2023-08-14T05:14:28.302Z,21.50
2023-08-14T05:17:31.206Z,19.70
2023-08-14T05:20:35.587Z,20.70
2023-08-14T05:23:37.757Z,17.52
2023-08-14T05:26:39.786Z,18.40
2023-08-14T05:29:42.031Z,20.40
2023-08-14T05:32:47.701Z,21.17
2023-08-14T05:35:50.538Z,16.45
2023-08-14T05:38:52.720Z,17.55
2023-08-14T05:41:54.941Z,19.85
2023-08-14T05:44:57.098Z,21.48
2023-08-14T05:47:59.852Z,23.95
2023-08-14T05:51:01.965Z,22.80
2023-08-14T05:54:04.379Z,22.70
2023-08-14T05:57:06.596Z,23.25
2023-08-14T06:00:11.858Z,21.30
2023-08-14T06:03:16.656Z,19.17
2023-08-14T06:06:25.165Z,15.45
2023-08-14T06:09:27.269Z,12.07
2023-08-14T06:12:29.352Z,9.43
2023-08-14T06:15:31.480Z,8.45
2023-08-14T06:18:33.799Z,6.28
2023-08-14T06:21:35.825Z,7.82
2023-08-14T06:24:37.920Z,4.85
2023-08-14T06:27:40.879Z,7.60
2023-08-14T06:30:42.991Z,4.35
2023-08-14T06:33:45.963Z,4.57
2023-08-14T06:36:48.549Z,5.32
2023-08-14T06:39:50.570Z,5.70
2023-08-14T06:42:53.382Z,5.38
2023-08-14T06:45:55.615Z,5.88
2023-08-14T06:48:57.726Z,5.25
2023-08-14T06:51:59.840Z,4.32
2023-08-14T06:55:01.915Z,6.70
2023-08-14T06:58:04.963Z,5.63
2023-08-14T07:01:08.239Z,4.35
2023-08-14T07:04:10.387Z,9.10
2023-08-14T07:07:12.425Z,5.00
2023-08-14T07:10:14.543Z,5.60
2023-08-14T07:13:16.760Z,5.78
2023-08-14T07:16:18.951Z,5.60
2023-08-14T07:19:21.083Z,4.93
2023-08-14T07:22:23.204Z,6.55
2023-08-14T07:25:26.101Z,5.22
2023-08-14T07:28:28.177Z,4.70
2023-08-14T07:31:30.328Z,3.40
2023-08-14T07:34:32.397Z,5.05
2023-08-14T07:37:34.472Z,3.70
2023-08-14T07:40:36.584Z,3.67
2023-08-14T07:43:38.708Z,7.72
2023-08-14T07:46:40.733Z,3.38
2023-08-14T07:49:42.888Z,5.28
2023-08-14T07:52:44.957Z,3.50
2023-08-14T07:55:49.337Z,4.22
2023-08-14T07:58:51.410Z,2.90
2023-08-14T08:01:53.683Z,4.90
2023-08-14T08:04:55.843Z,4.97
2023-08-14T08:07:58.081Z,4.78
2023-08-14T08:11:00.278Z,5.93
2023-08-14T08:14:06.522Z,3.97
2023-08-14T08:17:10.114Z,5.22
2023-08-14T08:20:12.448Z,4.40
2023-08-14T08:23:14.704Z,4.75
2023-08-14T08:26:16.767Z,3.85
2023-08-14T08:29:18.842Z,3.60
2023-08-14T08:32:21.091Z,2.72
2023-08-14T08:35:24.477Z,5.63
2023-08-14T08:38:26.714Z,7.00
2023-08-14T08:41:33.810Z,5.18
2023-08-14T08:44:39.733Z,5.57
2023-08-14T08:47:45.348Z,6.38
2023-08-14T08:50:49.145Z,3.67
2023-08-14T08:53:51.667Z,3.63
2023-08-14T08:56:54.850Z,5.80
2023-08-14T09:00:00.047Z,3.90
2023-08-14T09:03:02.329Z,5.50
2023-08-14T09:06:04.699Z,3.88
2023-08-14T09:09:07.755Z,5.95
2023-08-14T09:12:09.800Z,4.88
2023-08-14T09:15:12.078Z,4.28
2023-08-14T09:18:14.100Z,4.72
2023-08-14T09:21:19.108Z,3.60
2023-08-14T09:24:21.737Z,3.67
2023-08-14T09:27:24.500Z,5.50
2023-08-14T09:30:27.658Z,6.45
2023-08-14T09:33:29.791Z,3.40
2023-08-14T09:36:37.926Z,4.20
2023-08-14T09:39:40.008Z,5.68
2023-08-14T09:42:46.272Z,3.88
2023-08-14T09:45:48.689Z,4.07
2023-08-14T09:48:50.790Z,5.20
2023-08-14T09:51:59.443Z,5.35
2023-08-14T09:55:11.580Z,3.70
2023-08-14T09:58:14.090Z,5.93
2023-08-14T10:01:21.119Z,4.70
2023-08-14T10:04:24.474Z,5.35
2023-08-14T10:07:28.699Z,5.38
2023-08-14T10:10:32.049Z,3.63
2023-08-14T10:13:40.128Z,4.57
2023-08-14T10:16:43.504Z,4.53
2023-08-14T10:19:48.363Z,4.50
2023-08-14T10:22:53.761Z,7.53
2023-08-14T10:25:56.794Z,5.82
2023-08-14T10:28:59.298Z,5.72
2023-08-14T10:32:02.259Z,7.72
2023-08-14T10:35:05.092Z,5.82
2023-08-14T10:38:10.972Z,4.55
2023-08-14T10:41:16.283Z,3.65
2023-08-14T10:44:18.723Z,7.30
2023-08-14T10:47:23.312Z,5.45
2023-08-14T10:50:28.861Z,4.13
2023-08-14T10:53:32.072Z,4.13
2023-08-14T10:56:46.717Z,4.75
2023-08-14T11:00:24.841Z,7.43
2023-08-14T11:03:27.524Z,4.20
2023-08-14T11:06:49.464Z,6.28
2023-08-14T11:09:51.621Z,6.18
2023-08-14T11:12:55.488Z,4.03
2023-08-14T11:15:58.616Z,3.58
2023-08-14T11:19:02.139Z,6.55
2023-08-14T11:22:05.057Z,5.22
2023-08-14T11:25:07.138Z,4.60
2023-08-14T11:28:09.265Z,5.68
2023-08-14T11:31:14.567Z,6.35
2023-08-14T11:34:17.767Z,4.47
2023-08-14T11:37:19.903Z,4.45
2023-08-14T11:40:22.063Z,4.93
2023-08-14T11:43:24.167Z,4.13
2023-08-14T11:46:26.393Z,3.78
2023-08-14T11:49:32.119Z,4.05
2023-08-14T11:52:36.299Z,4.55
2023-08-14T11:55:38.588Z,4.72
2023-08-14T11:58:42.016Z,5.13
2023-08-14T12:01:45.613Z,3.55
2023-08-14T12:04:53.108Z,4.45
2023-08-14T12:07:59.697Z,4.70
2023-08-14T12:11:01.858Z,3.53
2023-08-14T12:14:08.576Z,3.97
2023-08-14T12:17:17.043Z,10.57
2023-08-14T12:20:21.355Z,5.05
2023-08-14T12:23:26.696Z,6.18
2023-08-14T12:26:37.274Z,5.82
2023-08-14T12:29:39.361Z,3.50
2023-08-14T12:32:48.311Z,3.95
2023-08-14T12:35:51.207Z,3.50
2023-08-14T12:38:53.254Z,6.22
2023-08-14T12:41:59.798Z,3.70
2023-08-14T12:45:01.913Z,4.57
2023-08-14T12:48:04.444Z,3.80
2023-08-14T12:54:11.611Z,4.63
2023-08-14T12:57:15.235Z,3.80
2023-08-14T13:00:17.474Z,4.57
2023-08-14T13:03:19.526Z,6.30
2023-08-14T13:06:22.149Z,4.70
2023-08-14T13:09:24.299Z,6.95
2023-08-14T13:12:26.401Z,3.90
2023-08-14T13:15:29.918Z,3.72
2023-08-14T13:18:32.116Z,5.97
2023-08-14T13:21:34.189Z,5.00
2023-08-14T13:24:36.366Z,3.83
2023-08-14T13:27:39.835Z,3.85
2023-08-14T13:30:44.386Z,6.97
2023-08-14T13:33:47.998Z,6.05
2023-08-14T13:36:50.113Z,4.32
2023-08-14T13:39:52.151Z,5.00
2023-08-14T13:42:54.233Z,7.15
2023-08-14T13:45:56.437Z,4.00
2023-08-14T13:48:58.474Z,4.45
2023-08-14T13:52:00.653Z,4.18
2023-08-14T13:55:03.089Z,4.10
2023-08-14T13:58:05.305Z,6.05
2023-08-14T14:01:07.397Z,5.22
2023-08-14T14:04:09.561Z,4.90
2023-08-14T14:07:12.572Z,4.88
2023-08-14T14:10:16.423Z,4.57
2023-08-14T14:13:18.589Z,4.20
2023-08-14T14:16:24.356Z,5.63
2023-08-14T14:19:28.025Z,3.85
2023-08-14T14:22:30.120Z,4.50
2023-08-14T14:25:32.289Z,6.07
2023-08-14T14:28:35.175Z,6.90
2023-08-14T14:31:37.404Z,8.48
2023-08-14T14:34:39.612Z,4.40
2023-08-14T14:37:41.724Z,5.72
2023-08-14T14:40:43.797Z,5.25
2023-08-14T14:43:45.916Z,4.47
2023-08-14T14:46:48.060Z,4.32
2023-08-14T14:49:50.240Z,4.38
2023-08-14T14:52:52.380Z,5.88
2023-08-14T14:55:54.487Z,5.20
2023-08-14T14:58:56.622Z,6.43
2023-08-14T15:01:58.756Z,4.47
2023-08-14T15:05:05.800Z,4.20
2023-08-14T15:08:09.255Z,5.68
2023-08-14T15:11:11.386Z,5.25
2023-08-14T15:14:13.437Z,4.20
2023-08-14T15:17:15.534Z,4.70
2023-08-14T15:20:17.699Z,11.88
2023-08-14T15:23:19.929Z,5.40
2023-08-14T15:26:22.066Z,4.13
2023-08-14T15:29:24.175Z,5.75
2023-08-14T15:32:26.319Z,6.43
2023-08-14T15:35:28.660Z,7.75
2023-08-14T15:38:30.733Z,5.32
2023-08-14T15:41:32.832Z,4.93
2023-08-14T15:44:34.979Z,4.38
2023-08-14T15:47:37.107Z,4.82
2023-08-14T15:50:39.324Z,4.47
2023-08-14T15:53:41.437Z,4.93
2023-08-14T15:56:43.533Z,5.22
2023-08-14T15:59:45.942Z,6.15
2023-08-14T16:02:48.089Z,5.60
2023-08-14T16:05:55.376Z,4.82
2023-08-14T16:08:57.442Z,5.20
2023-08-14T16:11:59.551Z,5.03
2023-08-14T16:15:01.864Z,6.07
2023-08-14T16:18:04.231Z,6.07
2023-08-14T16:21:07.677Z,5.15
2023-08-14T16:24:09.841Z,7.78
2023-08-14T16:27:12.912Z,8.77
2023-08-14T16:30:15.006Z,5.20
2023-08-14T16:33:17.199Z,4.85
2023-08-14T16:36:19.344Z,5.55
2023-08-14T16:39:21.426Z,5.53
2023-08-14T16:42:23.517Z,6.60
2023-08-14T16:45:25.914Z,6.68
2023-08-14T16:48:28.058Z,7.30
2023-08-14T16:51:31.065Z,9.70
2023-08-14T16:54:33.131Z,9.48
2023-08-14T16:57:35.222Z,8.45
2023-08-14T17:00:38.583Z,8.77
2023-08-14T17:03:40.821Z,8.18
2023-08-14T17:06:43.174Z,6.43
2023-08-14T17:09:45.478Z,10.02
2023-08-14T17:12:47.834Z,7.32
2023-08-14T17:15:49.959Z,6.90
2023-08-14T17:18:52.350Z,7.43
2023-08-14T17:21:54.995Z,7.32
2023-08-14T17:24:57.416Z,9.38
2023-08-14T17:27:59.508Z,10.50
2023-08-14T17:31:02.096Z,9.85
2023-08-14T17:34:04.649Z,11.32
2023-08-14T17:37:06.933Z,10.70
2023-08-14T17:40:09.851Z,9.23
2023-08-14T17:43:12.290Z,13.65
2023-08-14T17:46:14.907Z,15.10
2023-08-14T17:49:17.498Z,14.40
2023-08-14T17:52:19.710Z,11.80
2023-08-14T17:55:22.320Z,10.93
2023-08-14T17:58:24.628Z,11.32
2023-08-14T18:01:27.453Z,11.98
2023-08-14T18:04:30.032Z,17.83
2023-08-14T18:07:32.511Z,13.75
2023-08-14T18:10:35.037Z,13.60
2023-08-14T18:13:37.413Z,13.50
2023-08-14T18:16:40.834Z,14.23
2023-08-14T18:19:43.029Z,19.88
2023-08-14T18:22:45.570Z,21.40
2023-08-14T18:25:55.736Z,13.07
2023-08-14T18:28:58.275Z,19.33
2023-08-14T18:32:00.875Z,20.73
2023-08-14T18:35:03.253Z,16.42
2023-08-14T18:38:05.832Z,16.20
2023-08-14T18:41:08.199Z,17.90
2023-08-14T18:44:11.082Z,18.25
2023-08-14T18:47:13.239Z,18.92
2023-08-14T18:50:15.848Z,14.95
2023-08-14T18:53:18.435Z,17.15
2023-08-14T18:56:20.904Z,16.65
2023-08-14T18:59:24.289Z,16.02
2023-08-14T19:02:26.686Z,16.15
2023-08-14T19:05:29.380Z,14.45
2023-08-14T19:08:31.697Z,14.48
2023-08-14T19:11:34.588Z,16.45
2023-08-14T19:14:37.559Z,15.15
2023-08-14T19:17:40.140Z,20.90
2023-08-14T19:20:43.760Z,15.27
2023-08-14T19:23:45.950Z,17.75
2023-08-14T19:26:48.635Z,23.35
2023-08-14T19:29:51.280Z,16.65
2023-08-14T19:32:53.771Z,17.88
2023-08-14T19:35:56.504Z,20.40
2023-08-14T19:38:59.883Z,20.55
2023-08-14T19:42:04.798Z,21.65
2023-08-14T19:45:08.957Z,15.77
2023-08-14T19:48:12.637Z,25.35
2023-08-14T19:51:16.482Z,18.90
2023-08-14T19:54:19.104Z,19.80
2023-08-14T19:57:25.183Z,16.98
2023-08-14T20:00:27.708Z,19.30
2023-08-14T20:03:31.174Z,18.38
2023-08-14T20:06:33.762Z,19.17
2023-08-14T20:09:41.940Z,19.27
2023-08-14T20:12:44.863Z,17.70
2023-08-14T20:15:48.203Z,18.40
2023-08-14T20:18:50.484Z,19.48
2023-08-14T20:21:52.872Z,19.55
2023-08-14T20:24:55.963Z,18.80
2023-08-14T20:27:58.314Z,18.42
2023-08-14T20:31:00.805Z,19.80
2023-08-14T20:34:05.179Z,23.65
2023-08-14T20:37:08.125Z,19.73
2023-08-14T20:40:11.029Z,18.63
2023-08-14T20:43:22.030Z,21.55
2023-08-14T20:46:24.675Z,20.50
2023-08-14T20:49:26.958Z,20.45
2023-08-14T20:52:29.384Z,21.92
2023-08-14T20:55:31.683Z,22.50
2023-08-14T20:58:33.970Z,22.92
2023-08-14T21:01:36.117Z,22.02
2023-08-14T21:04:38.974Z,23.02
2023-08-14T21:07:41.049Z,20.90
2023-08-14T21:10:44.195Z,22.02
2023-08-14T21:13:46.216Z,22.23
2023-08-14T21:16:48.423Z,24.30
2023-08-14T21:19:50.859Z,20.80
2023-08-14T21:22:53.008Z,20.77
2023-08-14T21:25:56.414Z,23.80
2023-08-14T21:28:58.928Z,21.77
2023-08-14T21:32:01.041Z,21.80
2023-08-14T21:35:04.960Z,22.67
2023-08-14T21:38:07.081Z,24.67
2023-08-14T21:41:11.828Z,21.42
2023-08-14T21:44:14.235Z,24.75
2023-08-14T21:47:17.055Z,24.23
2023-08-14T21:50:19.351Z,23.27
2023-08-14T21:53:22.083Z,27.55
2023-08-14T21:56:24.570Z,29.40
2023-08-14T21:59:26.735Z,24.02
2023-08-14T22:02:28.838Z,23.83
2023-08-14T22:05:30.948Z,22.25
2023-08-14T22:08:33.120Z,21.08
2023-08-14T22:11:35.399Z,22.67
2023-08-14T22:14:37.427Z,23.95
2023-08-14T22:17:39.792Z,22.60
2023-08-14T22:20:42.901Z,22.25
2023-08-14T22:23:45.233Z,23.48
2023-08-14T22:26:47.279Z,25.02
2023-08-14T22:29:49.442Z,22.55
2023-08-14T22:32:51.542Z,23.58
2023-08-14T22:35:54.637Z,22.92
2023-08-14T22:38:56.944Z,24.17
2023-08-14T22:41:59.027Z,25.98
2023-08-14T22:45:01.362Z,25.00
2023-08-14T22:48:03.630Z,25.35
2023-08-14T22:51:06.890Z,25.10
2023-08-14T22:54:09.060Z,25.83
2023-08-14T22:57:11.216Z,25.10
2023-08-14T23:00:13.720Z,25.70
2023-08-14T23:03:16.454Z,26.30
2023-08-14T23:06:18.549Z,26.70
2023-08-14T23:09:20.734Z,26.35
2023-08-14T23:12:22.883Z,25.40
2023-08-14T23:15:25.122Z,27.25
2023-08-14T23:18:27.309Z,25.80
2023-08-14T23:21:29.531Z,28.77
2023-08-14T23:24:31.984Z,24.80
2023-08-14T23:27:34.091Z,26.50
2023-08-14T23:30:39.765Z,26.55
2023-08-14T23:33:41.931Z,29.83
2023-08-14T23:36:44.675Z,25.70
2023-08-14T23:39:46.859Z,27.08
2023-08-14T23:42:48.962Z,27.65
2023-08-14T23:45:51.040Z,26.88
2023-08-14T23:48:53.668Z,26.42
2023-08-14T23:51:55.798Z,25.05
2023-08-14T23:54:57.896Z,26.98
2023-08-14T23:58:00.048Z,26.67
